createdAt,value
2022-09-17T00:00:20.599Z,13.60
2022-09-17T00:02:51.783Z,13.60
2022-09-17T00:05:18.550Z,13.60
2022-09-17T00:07:45.325Z,13.60
2022-09-17T00:10:12.128Z,13.60
2022-09-17T00:12:38.878Z,13.60
2022-09-17T00:15:06.087Z,13.60
2022-09-17T00:17:32.815Z,13.50
2022-09-17T00:19:59.510Z,13.50
2022-09-17T00:22:26.297Z,13.50
2022-09-17T00:24:53.018Z,13.50
2022-09-17T00:27:19.813Z,13.50
2022-09-17T00:29:47.995Z,13.50
2022-09-17T00:32:14.747Z,13.40
2022-09-17T00:34:42.548Z,13.40
2022-09-17T00:37:09.333Z,13.40
2022-09-17T00:39:36.277Z,13.40
2022-09-17T00:42:05.674Z,13.40
2022-09-17T00:44:39.616Z,13.40
2022-09-17T00:47:12.431Z,13.40
2022-09-17T00:49:39.219Z,13.30
2022-09-17T00:52:08.367Z,13.30
2022-09-17T00:54:39.796Z,13.40
2022-09-17T00:57:06.754Z,13.40
2022-09-17T00:59:33.580Z,13.30
2022-09-17T01:02:00.381Z,13.30
2022-09-17T01:04:27.574Z,13.40
2022-09-17T01:07:06.475Z,13.30
2022-09-17T01:09:48.902Z,13.30
2022-09-17T01:12:21.493Z,13.30
2022-09-17T01:15:07.395Z,13.30
2022-09-17T01:17:34.161Z,13.30
2022-09-17T01:20:04.009Z,13.30
2022-09-17T01:22:36.258Z,13.30
2022-09-17T01:25:11.841Z,13.20
2022-09-17T01:27:58.120Z,13.20
2022-09-17T01:30:27.656Z,13.20
2022-09-17T01:33:03.611Z,13.30
2022-09-17T01:35:50.863Z,13.20
2022-09-17T01:38:29.456Z,13.30
2022-09-17T01:41:01.774Z,13.30
2022-09-17T01:43:48.820Z,13.30
2022-09-17T01:46:24.807Z,13.20
2022-09-17T01:48:53.361Z,12.90
2022-09-17T01:51:22.628Z,12.80
2022-09-17T01:53:58.789Z,12.60
2022-09-17T01:56:27.902Z,12.60
2022-09-17T01:59:01.169Z,12.60
2022-09-17T02:01:31.151Z,12.60
2022-09-17T02:04:09.993Z,12.60
2022-09-17T02:06:38.545Z,12.70
2022-09-17T02:09:15.526Z,12.70
2022-09-17T02:11:44.456Z,12.70
2022-09-17T02:14:17.007Z,12.70
2022-09-17T02:16:50.421Z,12.70
2022-09-17T02:19:24.944Z,12.70
2022-09-17T02:22:09.998Z,12.70
2022-09-17T02:24:42.639Z,12.60
2022-09-17T02:27:24.677Z,12.60
2022-09-17T02:29:51.559Z,12.60
2022-09-17T02:32:20.275Z,12.60
2022-09-17T02:34:47.643Z,12.60
2022-09-17T02:37:14.409Z,12.60
2022-09-17T02:39:41.809Z,12.60
2022-09-17T02:42:44.136Z,12.60
2022-09-17T02:45:19.982Z,12.60
2022-09-17T02:48:05.537Z,12.60
2022-09-17T02:50:32.568Z,12.60
2022-09-17T02:53:17.322Z,12.60
2022-09-17T02:55:59.259Z,12.60
2022-09-17T02:58:28.174Z,12.60
2022-09-17T03:00:57.576Z,12.60
2022-09-17T03:03:36.200Z,12.60
2022-09-17T03:06:03.104Z,12.50
2022-09-17T03:08:32.485Z,12.60
2022-09-17T03:10:59.735Z,12.60
2022-09-17T03:13:26.470Z,12.60
2022-09-17T03:15:53.290Z,12.50
2022-09-17T03:18:20.025Z,12.50
2022-09-17T03:20:46.933Z,12.60
2022-09-17T03:23:13.664Z,12.60
2022-09-17T03:25:40.388Z,12.60
2022-09-17T03:28:10.875Z,12.60
2022-09-17T03:30:37.726Z,12.60
2022-09-17T03:33:04.520Z,12.60
2022-09-17T03:35:31.238Z,12.60
2022-09-17T03:37:57.979Z,12.60
2022-09-17T03:40:24.799Z,12.60
2022-09-17T03:42:51.671Z,12.60
2022-09-17T03:45:18.429Z,12.70
2022-09-17T03:47:45.200Z,12.60
2022-09-17T03:50:11.923Z,12.60
2022-09-17T03:52:38.696Z,12.60
2022-09-17T03:55:05.759Z,12.60
2022-09-17T03:57:32.501Z,12.60
2022-09-17T03:59:59.270Z,12.60
2022-09-17T04:02:26.137Z,12.60
2022-09-17T04:04:53.889Z,12.50
2022-09-17T04:07:20.630Z,12.60
2022-09-17T04:09:47.487Z,12.60
2022-09-17T04:12:14.253Z,12.60
2022-09-17T04:14:40.973Z,12.60
2022-09-17T04:17:07.957Z,12.60
2022-09-17T04:19:34.726Z,12.60
2022-09-17T04:22:01.483Z,12.60
2022-09-17T04:24:28.225Z,12.60
2022-09-17T04:26:54.985Z,12.60
2022-09-17T04:29:21.962Z,12.60
2022-09-17T04:31:48.677Z,12.60
2022-09-17T04:34:15.399Z,12.60
2022-09-17T04:36:42.104Z,12.60
2022-09-17T04:39:09.024Z,12.60
2022-09-17T04:41:35.865Z,12.60
2022-09-17T04:44:02.669Z,12.60
2022-09-17T04:46:29.505Z,12.60
2022-09-17T04:48:56.295Z,12.60
2022-09-17T04:51:23.029Z,12.60
2022-09-17T04:53:49.755Z,12.60
2022-09-17T04:56:16.490Z,12.60
2022-09-17T04:58:43.318Z,12.60
2022-09-17T05:01:10.189Z,12.60
2022-09-17T05:03:36.969Z,12.60
2022-09-17T05:06:03.873Z,12.60
2022-09-17T05:08:30.659Z,12.70
2022-09-17T05:10:57.656Z,12.70
2022-09-17T05:13:24.455Z,12.60
2022-09-17T05:15:51.233Z,12.60
2022-09-17T05:18:18.091Z,12.60
2022-09-17T05:20:44.918Z,12.70
2022-09-17T05:23:11.724Z,12.60
2022-09-17T05:25:38.568Z,12.70
2022-09-17T05:28:05.458Z,12.70
2022-09-17T05:30:32.261Z,12.70
2022-09-17T05:33:03.095Z,12.70
2022-09-17T05:35:30.310Z,12.80
2022-09-17T05:38:00.932Z,12.80
2022-09-17T05:40:28.219Z,12.70
2022-09-17T05:43:01.626Z,12.70
2022-09-17T05:45:28.831Z,12.70
2022-09-17T05:47:56.622Z,12.70
2022-09-17T05:50:23.959Z,12.80
2022-09-17T05:52:51.379Z,12.80
2022-09-17T05:55:18.380Z,12.80
2022-09-17T05:57:45.133Z,12.80
2022-09-17T06:00:12.558Z,12.80
2022-09-17T06:02:39.300Z,12.80
2022-09-17T06:05:06.149Z,12.80
2022-09-17T06:07:35.086Z,12.90
2022-09-17T06:10:02.006Z,12.90
2022-09-17T06:12:28.697Z,12.90
2022-09-17T06:14:55.456Z,12.90
2022-09-17T06:17:22.428Z,12.90
2022-09-17T06:19:49.264Z,12.90
2022-09-17T06:22:17.874Z,12.90
2022-09-17T06:24:44.581Z,13.00
2022-09-17T06:27:11.315Z,12.90
2022-09-17T06:29:38.086Z,12.90
2022-09-17T06:32:04.941Z,12.90
2022-09-17T06:34:31.697Z,12.90
2022-09-17T06:36:58.422Z,12.90
2022-09-17T06:39:25.233Z,12.90
2022-09-17T06:41:52.028Z,13.00
2022-09-17T06:44:18.809Z,12.90
2022-09-17T06:46:45.608Z,12.90
2022-09-17T06:49:13.591Z,12.90
2022-09-17T06:51:40.297Z,12.90
2022-09-17T06:54:07.091Z,12.80
2022-09-17T06:56:34.440Z,12.80
2022-09-17T06:59:01.371Z,12.90
2022-09-17T07:01:28.254Z,12.80
2022-09-17T07:03:55.077Z,12.80
2022-09-17T07:06:21.837Z,12.80
2022-09-17T07:08:48.665Z,12.90
2022-09-17T07:11:16.429Z,12.90
2022-09-17T07:13:43.232Z,12.90
2022-09-17T07:16:10.474Z,12.90
2022-09-17T07:18:37.384Z,13.00
2022-09-17T07:21:05.330Z,12.90
2022-09-17T07:23:33.586Z,13.10
2022-09-17T07:26:01.439Z,13.10
2022-09-17T07:28:28.832Z,13.10
2022-09-17T07:30:55.876Z,13.20
2022-09-17T07:33:24.462Z,13.20
2022-09-17T07:35:54.245Z,13.20
2022-09-17T07:38:21.429Z,13.20
2022-09-17T07:41:14.503Z,13.20
2022-09-17T07:43:42.145Z,13.20
2022-09-17T07:46:13.094Z,13.20
2022-09-17T07:48:39.950Z,13.30
2022-09-17T07:51:06.796Z,13.30
2022-09-17T07:53:33.817Z,13.40
2022-09-17T07:56:00.687Z,13.20
2022-09-17T07:58:31.957Z,13.30
2022-09-17T08:01:02.648Z,13.30
2022-09-17T08:03:29.627Z,13.30
2022-09-17T08:06:12.899Z,13.20
2022-09-17T08:08:40.201Z,13.20
2022-09-17T08:11:08.322Z,13.20
2022-09-17T08:13:35.110Z,13.20
2022-09-17T08:16:03.522Z,13.20
2022-09-17T08:18:30.286Z,13.30
2022-09-17T08:21:00.679Z,13.30
2022-09-17T08:23:27.974Z,13.30
2022-09-17T08:25:55.593Z,13.30
2022-09-17T08:28:23.969Z,13.30
2022-09-17T08:30:51.313Z,13.40
2022-09-17T08:33:18.406Z,13.40
2022-09-17T08:35:55.037Z,13.40
2022-09-17T08:38:22.210Z,13.40
2022-09-17T08:40:56.358Z,13.50
2022-09-17T08:43:24.417Z,13.60
2022-09-17T08:45:55.099Z,13.60
2022-09-17T08:48:22.918Z,13.50
2022-09-17T08:50:50.967Z,13.50
2022-09-17T08:53:31.250Z,13.50
2022-09-17T08:56:00.795Z,13.50
2022-09-17T08:58:32.045Z,13.60
2022-09-17T09:01:16.683Z,13.70
2022-09-17T09:03:48.317Z,13.60
2022-09-17T09:06:15.600Z,13.60
2022-09-17T09:08:46.732Z,13.80
2022-09-17T09:11:15.189Z,13.70
2022-09-17T09:13:47.349Z,13.70
2022-09-17T09:16:24.724Z,13.70
2022-09-17T09:18:54.146Z,13.70
2022-09-17T09:21:28.373Z,13.80
2022-09-17T09:24:20.399Z,13.90
2022-09-17T09:26:48.153Z,13.90
2022-09-17T09:29:22.189Z,13.90
2022-09-17T09:31:55.247Z,13.90
2022-09-17T09:34:23.793Z,13.80
2022-09-17T09:36:51.547Z,13.80
2022-09-17T09:39:21.906Z,13.80
2022-09-17T09:41:54.386Z,13.90
2022-09-17T09:44:24.151Z,13.80
2022-09-17T09:46:58.001Z,13.90
2022-09-17T09:49:50.299Z,13.90
2022-09-17T09:52:19.748Z,13.80
2022-09-17T09:54:52.660Z,13.70
2022-09-17T09:57:24.170Z,13.80
2022-09-17T09:59:50.903Z,13.80
2022-09-17T10:02:17.863Z,13.80
2022-09-17T10:04:44.752Z,13.80
2022-09-17T10:07:11.727Z,13.90
2022-09-17T10:09:39.193Z,13.80
2022-09-17T10:12:08.944Z,13.90
2022-09-17T10:14:36.693Z,13.90
2022-09-17T10:17:13.048Z,13.90
2022-09-17T10:19:39.915Z,13.90
2022-09-17T10:22:18.899Z,13.80
2022-09-17T10:24:46.014Z,13.80
2022-09-17T10:27:17.577Z,14.00
2022-09-17T10:29:46.135Z,13.90
2022-09-17T10:32:15.691Z,13.80
2022-09-17T10:34:43.757Z,13.90
2022-09-17T10:37:32.476Z,13.80
2022-09-17T10:39:59.278Z,13.80
2022-09-17T10:42:25.995Z,13.90
2022-09-17T10:44:54.004Z,14.00
2022-09-17T10:47:31.479Z,14.10
2022-09-17T10:50:02.633Z,14.10
2022-09-17T10:52:30.675Z,14.10
2022-09-17T10:55:00.240Z,14.10
2022-09-17T10:57:55.212Z,14.20
2022-09-17T11:00:23.462Z,14.30
2022-09-17T11:02:50.208Z,14.40
2022-09-17T11:05:26.739Z,14.50
2022-09-17T11:08:02.851Z,14.40
2022-09-17T11:10:34.804Z,14.40
2022-09-17T11:13:01.611Z,14.30
2022-09-17T11:15:31.241Z,14.40
2022-09-17T11:18:03.749Z,14.30
2022-09-17T11:20:45.639Z,14.10
2022-09-17T11:23:31.240Z,14.30
2022-09-17T11:26:03.382Z,14.30
2022-09-17T11:28:30.182Z,14.40
2022-09-17T11:30:56.962Z,14.20
2022-09-17T11:33:23.699Z,14.10
2022-09-17T11:35:52.665Z,14.00
2022-09-17T11:38:25.670Z,14.00
2022-09-17T11:41:12.651Z,14.10
2022-09-17T11:44:15.001Z,14.00
2022-09-17T11:46:41.735Z,14.00
2022-09-17T11:49:14.359Z,13.90
2022-09-17T11:51:43.943Z,13.90
2022-09-17T11:54:16.704Z,13.80
2022-09-17T11:56:44.988Z,13.80
2022-09-17T11:59:20.187Z,13.80
2022-09-17T12:01:47.172Z,13.70
2022-09-17T12:04:13.972Z,13.70
2022-09-17T12:06:46.805Z,13.80
2022-09-17T12:09:19.564Z,13.80
2022-09-17T12:11:50.135Z,13.80
2022-09-17T12:14:40.188Z,13.80
2022-09-17T12:17:12.527Z,13.80
2022-09-17T12:19:51.630Z,13.80
2022-09-17T12:22:22.971Z,13.80
2022-09-17T12:24:53.732Z,13.80
2022-09-17T12:27:49.304Z,13.80
2022-09-17T12:30:25.844Z,13.90
2022-09-17T12:32:56.733Z,14.00
2022-09-17T12:36:02.954Z,14.00
2022-09-17T12:38:38.030Z,14.10
2022-09-17T12:41:07.856Z,14.20
2022-09-17T12:43:50.030Z,14.20
2022-09-17T12:46:26.139Z,14.30
2022-09-17T12:49:11.648Z,14.30
2022-09-17T12:51:59.271Z,14.30
2022-09-17T12:54:41.849Z,14.20
2022-09-17T12:57:19.105Z,14.20
2022-09-17T13:00:01.780Z,14.20
2022-09-17T13:02:44.753Z,14.20
2022-09-17T13:05:14.884Z,14.20
2022-09-17T13:07:44.643Z,14.20
2022-09-17T13:10:11.354Z,14.20
2022-09-17T13:12:41.423Z,14.10
2022-09-17T13:18:22.923Z,14.10
2022-09-17T13:20:55.111Z,14.20
2022-09-17T13:23:55.861Z,14.30
2022-09-17T13:26:33.719Z,14.30
2022-09-17T13:29:00.652Z,14.50
2022-09-17T13:31:39.418Z,14.50
2022-09-17T13:34:18.266Z,14.50
2022-09-17T13:36:49.278Z,14.50
2022-09-17T13:39:34.899Z,14.40
2022-09-17T13:42:08.163Z,14.30
2022-09-17T13:44:40.494Z,14.30
2022-09-17T13:47:27.949Z,14.30
2022-09-17T13:50:17.858Z,14.30
2022-09-17T13:52:44.601Z,14.30
2022-09-17T13:55:31.108Z,14.20
2022-09-17T13:57:58.008Z,14.20
2022-09-17T14:00:43.412Z,14.10
2022-09-17T14:03:28.545Z,14.10
2022-09-17T14:05:55.688Z,14.10
2022-09-17T14:08:49.787Z,14.10
2022-09-17T14:11:22.711Z,14.20
2022-09-17T14:13:52.444Z,14.20
2022-09-17T14:16:37.190Z,14.20
2022-09-17T14:19:16.693Z,14.30
2022-09-17T14:21:46.413Z,14.40
2022-09-17T14:24:21.820Z,14.50
2022-09-17T14:26:57.809Z,14.50
2022-09-17T14:29:31.582Z,14.50
2022-09-17T14:31:58.483Z,14.50
2022-09-17T14:34:26.682Z,14.60
2022-09-17T14:36:54.078Z,14.60
2022-09-17T14:39:27.439Z,14.50
2022-09-17T14:41:54.587Z,14.60
2022-09-17T14:44:26.915Z,14.60
2022-09-17T14:46:58.877Z,14.60
2022-09-17T14:49:26.824Z,14.60
2022-09-17T14:51:54.442Z,14.70
2022-09-17T14:54:31.226Z,14.90
2022-09-17T14:57:01.538Z,15.10
2022-09-17T14:59:47.128Z,15.10
2022-09-17T15:02:34.212Z,15.00
2022-09-17T15:05:02.053Z,15.00
2022-09-17T15:07:28.857Z,14.90
2022-09-17T15:10:06.344Z,14.80
2022-09-17T15:12:33.152Z,14.80
2022-09-17T15:14:59.892Z,14.80
2022-09-17T15:17:26.729Z,14.90
2022-09-17T15:19:56.107Z,14.90
2022-09-17T15:22:38.188Z,14.90
2022-09-17T15:25:08.001Z,14.90
2022-09-17T15:27:37.133Z,15.00
2022-09-17T15:30:10.970Z,14.90
2022-09-17T15:32:38.666Z,15.00
2022-09-17T15:35:12.042Z,15.00
2022-09-17T15:38:05.743Z,14.90
2022-09-17T15:40:39.789Z,14.90
2022-09-17T15:43:25.555Z,14.80
2022-09-17T15:45:52.673Z,14.90
2022-09-17T15:48:28.330Z,14.80
2022-09-17T15:50:58.675Z,14.90
2022-09-17T15:53:26.652Z,14.90
2022-09-17T15:56:15.440Z,14.90
2022-09-17T15:58:42.175Z,15.00
2022-09-17T16:01:08.870Z,15.00
2022-09-17T16:03:55.596Z,15.00
2022-09-17T16:06:22.372Z,15.00
2022-09-17T16:08:50.018Z,15.00
2022-09-17T16:11:17.389Z,15.00
2022-09-17T16:13:47.264Z,14.90
2022-09-17T16:16:18.619Z,14.90
2022-09-17T16:18:45.615Z,14.80
2022-09-17T16:21:16.299Z,14.70
2022-09-17T16:23:43.598Z,14.70
2022-09-17T16:26:12.411Z,14.70
2022-09-17T16:28:39.401Z,14.60
2022-09-17T16:31:06.501Z,14.60
2022-09-17T16:33:33.285Z,14.60
2022-09-17T16:36:00.418Z,14.60
2022-09-17T16:38:27.217Z,14.60
2022-09-17T16:40:54.021Z,14.60
2022-09-17T16:43:20.855Z,14.60
2022-09-17T16:46:07.244Z,14.60
2022-09-17T16:48:34.161Z,14.60
2022-09-17T16:51:03.849Z,14.60
2022-09-17T16:53:30.611Z,14.60
2022-09-17T16:55:57.376Z,14.60
2022-09-17T16:58:24.192Z,14.60
2022-09-17T17:00:50.931Z,14.50
2022-09-17T17:03:17.902Z,14.60
2022-09-17T17:05:44.702Z,14.50
2022-09-17T17:08:11.432Z,14.50
2022-09-17T17:10:39.241Z,14.50
2022-09-17T17:13:06.291Z,14.50
2022-09-17T17:15:33.074Z,14.50
2022-09-17T17:17:59.816Z,14.50
2022-09-17T17:20:26.545Z,14.50
2022-09-17T17:22:54.585Z,14.50
2022-09-17T17:25:21.337Z,14.50
2022-09-17T17:27:48.048Z,14.40
2022-09-17T17:30:17.542Z,14.20
2022-09-17T17:32:45.221Z,14.10
2022-09-17T17:35:12.202Z,13.90
2022-09-17T17:37:39.002Z,13.80
2022-09-17T17:40:10.205Z,13.70
2022-09-17T17:42:43.871Z,13.70
2022-09-17T17:45:10.952Z,13.60
2022-09-17T17:47:37.704Z,13.60
2022-09-17T17:50:05.059Z,13.60
2022-09-17T17:52:31.956Z,13.70
2022-09-17T17:54:58.747Z,13.80
2022-09-17T17:57:25.576Z,13.80
2022-09-17T17:59:52.325Z,13.90
2022-09-17T18:02:19.228Z,13.90
2022-09-17T18:04:46.050Z,13.90
2022-09-17T18:07:12.927Z,14.00
2022-09-17T18:09:39.811Z,14.10
2022-09-17T18:12:06.996Z,14.10
2022-09-17T18:14:33.886Z,14.20
2022-09-17T18:17:01.097Z,14.20
2022-09-17T18:19:27.820Z,14.20
2022-09-17T18:21:54.686Z,14.20
2022-09-17T18:24:21.656Z,14.20
2022-09-17T18:26:48.483Z,14.20
2022-09-17T18:29:15.187Z,14.20
2022-09-17T18:31:42.036Z,14.20
2022-09-17T18:34:13.799Z,14.20
2022-09-17T18:36:41.217Z,14.20
2022-09-17T18:39:52.829Z,14.20
2022-09-17T18:41:57.065Z,14.20
2022-09-17T18:44:24.824Z,14.20
2022-09-17T18:46:51.762Z,14.20
2022-09-17T18:49:18.596Z,14.20
2022-09-17T18:51:45.508Z,14.20
2022-09-17T18:54:15.155Z,14.20
2022-09-17T18:56:42.138Z,14.20
2022-09-17T18:59:09.508Z,14.20
2022-09-17T19:01:36.516Z,14.20
2022-09-17T19:04:03.814Z,14.20
2022-09-17T19:06:32.185Z,14.10
2022-09-17T19:09:00.339Z,14.10
2022-09-17T19:11:27.218Z,14.00
2022-09-17T19:13:54.243Z,13.90
2022-09-17T19:16:21.101Z,13.90
2022-09-17T19:18:48.006Z,13.90
2022-09-17T19:21:16.073Z,13.80
2022-09-17T19:23:43.669Z,13.80
2022-09-17T19:26:17.093Z,13.80
2022-09-17T19:28:43.836Z,13.90
2022-09-17T19:31:12.268Z,13.90
2022-09-17T19:33:39.136Z,14.00
2022-09-17T19:36:07.132Z,13.90
2022-09-17T19:38:34.280Z,13.90
2022-09-17T19:41:02.997Z,13.80
2022-09-17T19:43:30.166Z,13.80
2022-09-17T19:46:01.412Z,13.80
2022-09-17T19:48:28.697Z,13.80
2022-09-17T19:50:55.886Z,13.80
2022-09-17T19:53:22.653Z,13.80
2022-09-17T19:55:49.834Z,13.80
2022-09-17T19:58:16.610Z,13.70
2022-09-17T20:00:43.663Z,13.70
2022-09-17T20:03:10.518Z,13.70
2022-09-17T20:05:37.413Z,13.70
2022-09-17T20:08:05.627Z,13.70
2022-09-17T20:10:36.397Z,13.70
2022-09-17T20:13:03.826Z,13.70
2022-09-17T20:15:33.681Z,13.70
2022-09-17T20:18:00.486Z,13.80
2022-09-17T20:20:28.603Z,13.80
2022-09-17T20:22:55.890Z,13.90
2022-09-17T20:25:25.510Z,13.90
2022-09-17T20:27:52.924Z,13.90
2022-09-17T20:30:19.759Z,13.90
2022-09-17T20:32:46.629Z,13.90
2022-09-17T20:35:14.131Z,14.00
2022-09-17T20:38:44.565Z,14.00
2022-09-17T20:40:29.788Z,14.00
2022-09-17T20:42:56.759Z,14.00
2022-09-17T20:45:23.459Z,14.00
2022-09-17T20:47:51.145Z,14.10
2022-09-17T20:50:17.918Z,14.00
2022-09-17T20:52:44.677Z,14.00
2022-09-17T20:55:11.427Z,14.10
2022-09-17T20:57:38.224Z,14.10
2022-09-17T21:00:17.679Z,14.00
2022-09-17T21:02:50.445Z,14.10
2022-09-17T21:05:18.457Z,14.10
2022-09-17T21:07:45.706Z,14.10
2022-09-17T21:10:13.466Z,14.10
2022-09-17T21:12:40.269Z,14.00
2022-09-17T21:15:07.393Z,14.00
2022-09-17T21:17:34.623Z,14.00
2022-09-17T21:20:01.439Z,13.90
2022-09-17T21:22:28.189Z,14.00
2022-09-17T21:24:54.949Z,13.90
2022-09-17T21:27:22.138Z,13.90
2022-09-17T21:29:48.866Z,13.90
2022-09-17T21:32:15.654Z,13.90
2022-09-17T21:34:42.912Z,13.90
2022-09-17T21:37:09.611Z,13.90
2022-09-17T21:39:36.658Z,13.80
2022-09-17T21:42:03.527Z,13.80
2022-09-17T21:44:31.396Z,13.80
2022-09-17T21:46:58.312Z,13.90
2022-09-17T21:49:25.315Z,13.90
2022-09-17T21:51:52.034Z,13.90
2022-09-17T21:54:18.854Z,13.90
2022-09-17T21:56:46.536Z,13.90
2022-09-17T21:59:14.345Z,13.90
2022-09-17T22:01:46.756Z,13.90
2022-09-17T22:04:14.848Z,13.90
2022-09-17T22:06:42.196Z,13.90
2022-09-17T22:09:13.129Z,13.90
2022-09-17T22:11:39.995Z,13.90
2022-09-17T22:14:11.465Z,13.80
2022-09-17T22:16:39.527Z,13.80
2022-09-17T22:19:06.774Z,13.80
2022-09-17T22:21:36.084Z,13.80
2022-09-17T22:24:03.955Z,13.80
2022-09-17T22:26:40.311Z,13.80
2022-09-17T22:29:09.297Z,13.80
2022-09-17T22:31:36.669Z,13.80
2022-09-17T22:34:06.715Z,13.70
2022-09-17T22:36:33.416Z,13.70
2022-09-17T22:39:00.272Z,13.70
2022-09-17T22:41:31.062Z,13.70
2022-09-17T22:44:02.117Z,13.70
2022-09-17T22:46:36.176Z,13.70
2022-09-17T22:49:03.265Z,13.70
2022-09-17T22:51:30.255Z,13.70
2022-09-17T22:53:58.214Z,13.80
2022-09-17T22:56:27.064Z,13.80
2022-09-17T22:58:54.147Z,13.80
2022-09-17T23:01:22.263Z,13.80
2022-09-17T23:03:50.578Z,13.80
2022-09-17T23:06:19.286Z,13.80
2022-09-17T23:08:46.332Z,13.80
2022-09-17T23:11:23.422Z,13.80
2022-09-17T23:13:50.783Z,13.70
2022-09-17T23:16:17.845Z,13.70
2022-09-17T23:18:44.813Z,13.70
2022-09-17T23:21:16.488Z,13.70
2022-09-17T23:23:43.814Z,13.70
2022-09-17T23:26:15.366Z,13.70
2022-09-17T23:28:42.145Z,13.60
2022-09-17T23:31:13.491Z,13.60
2022-09-17T23:33:40.468Z,13.50
2022-09-17T23:36:08.151Z,13.60
2022-09-17T23:38:35.275Z,13.60
2022-09-17T23:41:15.616Z,13.50
2022-09-17T23:43:43.134Z,13.50
2022-09-17T23:46:10.206Z,13.40
2022-09-17T23:48:37.227Z,13.40
2022-09-17T23:51:04.536Z,13.40
2022-09-17T23:53:32.023Z,13.40
2022-09-17T23:56:00.424Z,13.40
2022-09-17T23:58:30.713Z,13.40
